Williston, ND

3:51 PM CDT on August 21, 2014 (GMT -0500)
Valhalla | Change Station
CLOSE
Current Station
Personal Weather Station
Location: Williston, ND
Elevation: 2040 ft
Nearby Weather Stations

Elev 2040 ft 48.33 °N, 103.62 °W | Updated 3 seconds ago

Mostly Cloudy
Mostly Cloudy
74.1 °F
Feels Like 74 °F
N
3.6
Wind Variable Wind from ESE
Gusts 3.6 mph

Today
High -- | Low -- °F
--% Chance of Precip.
Yesterday
High -- | Low -- °F
Precip. -- in
6:57 AM 8:57 PM
Waning Crescent, 12% visible
Pressure 29.96 in
Visibility 10.0 miles
Clouds Scattered Clouds 2900 ft
Mostly Cloudy 12000 ft
Heat Index 74 °F
Dew Point 68 °F
Humidity 82%
Rainfall 0.00 in
Snow Depth Not available.
UV 4 out of 12
Pollen 8.10 out of 12
Air Quality Not available.
Flu Activity Not available.
SPECI KISN 212023Z AUTO 36008KT 10SM SCT029 BKN120 22/14 A2996 RMK AO2 T02170139

More Conditions Fewer Conditions

Pressure 29.96 in
Visibility 10.0 miles
Clouds Scattered Clouds 2900 ft
Mostly Cloudy 12000 ft
Heat Index 74 °F
Dew Point 68 °F
Humidity 82%
Rainfall 0.00 in
Snow Depth Not available.
UV 4 out of 12
Pollen 8.10 out of 12
Air Quality Not available.
Flu Activity Not available.
SPECI KISN 212023Z AUTO 36008KT 10SM SCT029 BKN120 22/14 A2996 RMK AO2 T02170139

More Conditions Fewer Conditions

10-Day Weather Forecast

Almanac

Astronomy

Aug. 21, 2014 Rise Set
Actual Time 6:57 AM CDT 8:57 PM CDT
Civil Twilight 6:23 AM CDT 9:30 PM CDT
Nautical Twilight 5:41 AM CDT 10:12 PM CDT
Astronomical Twilight 4:55 AM CDT 10:58 PM CDT
Moon 3:21 AM CDT 6:34 PM CDT
Length of Visible Light 15h 07m
Length of Day
14h 00m
Tomorrow will be 3m 15s shorter.
Waning Crescent, 12% of the Moon is Illuminated
Today
Waning Crescent
Aug 25
New
Sep 2
First Quarter
Sep 8
Full
Sep 15
Last Quarter

Today's Extremes

State Highs State Lows

Community

WunderPhotos

Upload Photos

1,746,017 photos uploaded!

WunderBlogs® & News

Nearby

Snow Depth

Station Depth Elevation
No new snow has been reported.

Earthquake Activity

City Distance Mag. Time & Date
No recent earthquake activity has been reported nearby.
Minimum magnitude displayed is 2.5.

Coastal Water Temperatures

Place Temperature
No Stations Reporting

Nearby Weather Stations